AirNav   Everest Fuels
 
 1144 users online  

N10 Perkiomen Valley Airport
Collegeville, Pennsylvania, USA

GOING TO COLLEGEVILLE?


FAA INFORMATION EFFECTIVE 18 JULY 2019

Location

FAA Identifier: N10
Lat/Long: 40-12-14.5740N / 075-25-48.9470W
40-12.242900N / 075-25.815783W
40.2040483 / -75.4302631
(estimated)
Elevation: 277 ft. / 84 m (estimated)
Variation: 12W (2005)
From city: 2 miles NE of COLLEGEVILLE, PA
Time zone: UTC -4 (UTC -5 during Standard Time)
Zip code: 19426

Airport Operations

Airport use: Open to the public
Control tower: no
ARTCC: NEW YORK CENTER
FSS: WILLIAMSPORT FLIGHT SERVICE STATION
NOTAMs facility: IPT (NOTAM-D service available)
Attendance: UNATNDD
Wind indicator: no
Segmented circle: no

Airport Communications

CTAF/UNICOM: 122.8
PHILADELPHIA APPROACH: 126.85
PHILADELPHIA DEPARTURE: 126.85
CLEARANCE DELIVERY: 118.55
WX ASOS at PTW (6 nm W): 119.425 (610-495-0823)
WX AWOS-3 at LOM (9 nm SE): 118.925 (215-646-1068)
WX AWOS-3 at CKZ (13 nm NE): 126.325 (215-257-7291)
WX AWOS-3 at UKT (14 nm N): 119.475 (215-538-7610)
WX AWOS-3T at OQN (15 nm SW): 121.4 ((610) 692-6190)
WX ASOS at DYL (16 nm NE): 118.875 (215-345-0392)
  • CLEARANCE DELIVERY PHILADELPHIA APCH TF 800-354-9884.

Nearby radio navigation aids

VOR radial/distance  VOR name  Freq  Var
PTWr109/6.1POTTSTOWN VORTAC116.5009W
MXEr042/20.4MODENA VORTAC113.2009W
ARDr273/24.1YARDLEY VOR/DME108.2010W
ETXr162/25.4EAST TEXAS VOR/DME110.2009W
FJCr188/31.4ALLENTOWN VORTAC117.5010W
DQOr024/32.6DUPONT VORTAC114.0010W
OODr000/34.6WOODSTOWN VORTAC112.8010W
SBJr244/38.8SOLBERG VOR/DME112.9010W
LRPr092/39.8LANCASTER VOR/DME117.3009W

 
NDB name  Hdg/Dist  Freq  Var  ID
AMBLER317/8.127512WING .. -. --.

Airport Services

Parking: tiedowns
Bottled oxygen: NONE
Bulk oxygen: NONE

Runway Information

Runway 9/27

Dimensions: 2880 x 40 ft. / 878 x 12 m
Surface: asphalt, in poor condition
UNSEALED CRACKS AND JOINTS IN ASPH.
Weight bearing capacity: 
Single wheel: 12.5
Runway edge markings: MARKINGS, ARROWS SML AND MISALIGNED, DBL THR BAR AND SML NRS, FADED.
RUNWAY 9  RUNWAY 27
Latitude: 40-12.187135N40-12.298545N
Longitude: 075-26.115893W075-25.514570W
Elevation: 245.0 ft.273.0 ft.
Traffic pattern: leftleft
Runway heading: 088 magnetic, 076 true268 magnetic, 256 true
Displaced threshold: 420 ft.
DTHR LGTS 150 FT DOWN RWY FM THR MARKING.
370 ft.
DTHR MKD WITH 2 PARL WHITE LINES; LGTD WITH 4 RED & GREEN LGTS EACH SIDE OF RWY.
Markings: NSTD, in poor conditionNSTD, in poor condition
Touchdown point: yes, no lightsyes, no lights
Obstructions: 45 ft. trees, 203 ft. from runway, 50 ft. both sides of centerline
20 FT ROAD AT THR 37 FT LEFT TO 250 FT RIGHT. MULT TREES 50 FT IN OFZ.
58 ft. trees, 806 ft. from runway, 42 ft. left of centerline, 10:1 slope to clear
7 FT RD AT THR 135 FT RIGHT TO 192 FT LEFT. 48 FT TREES 99 FT FM RWY END.

Airport Ownership and Management from official FAA records

Ownership: Privately-owned
Owner: ESTATE OF LANE R. JUBB
767 COLLEGEVILLE RD
COLLEGEVILLE, PA 19426
Phone 610-329-1083
Manager: DAVID RITTENHOUSE
767 COLLEGEVILLE RD
COLLEGEVILLE, PA 19426
Phone (610) 999-3560

Airport Operational Statistics

Aircraft based on the field: 3
Single engine airplanes: 3
    
Aircraft operations: avg 22/month *
58% local general aviation
38% transient general aviation
4% military
* for 12-month period ending 20 September 2018

Additional Remarks

FOR CD CTC PHILADELPHIA APCH AT 800-354-9884.
DEER, FOX, GEESE ON AND INVOF RWY.
NOISE ABATEMENT PROC IN EFCT, CTC ARPT MGR AT 610-551-0216.

Instrument Procedures

NOTE: All procedures below are presented as PDF files. If you need a reader for these files, you should download the free Adobe Reader.

NOT FOR NAVIGATION. Please procure official charts for flight.
FAA instrument procedures published for use from 18 July 2019 at 0901Z to 16 August 2019 at 0900Z.

 
IAPs - Instrument Approach Procedures
RNAV (GPS)-B   download
RNAV (GPS)-C   download
NOTE: Special Take-Off Minimums/Departure Procedures apply   download (149KB)

Other nearby airports with instrument procedures:

KPTW - Heritage Field Airport (6 nm W)
KLOM - Wings Field Airport (9 nm SE)
N47 - Pottstown Municipal Airport (12 nm W)
KCKZ - Pennridge Airport (13 nm NE)
KUKT - Quakertown Airport (14 nm N)
KOQN - Brandywine Regional Airport (15 nm SW)
KDYL - Doylestown Airport (16 nm NE)
 
Loc | Ops | Rwys | IFR | FBO | Links
Com | Nav | Svcs | Stats | Notes
Area around N10 (Perkiomen Valley Airport)
 
Road maps at: MapQuest Bing Google
 
Aerial photo
WARNING: Photo may not be current or correct
Aerial photo of N10 (Perkiomen Valley Airport)
Photo taken 12-Dec-2012
Taken at 1400' looking west.

Do you have a better or more recent aerial photo of Perkiomen Valley Airport that you would like to share? If so, please send us your photo.

 
Sectional chart

 
Airport distance calculator
Flying to Perkiomen Valley Airport? Find the distance to fly.

From to N10

Sunrise and sunset
Times for 20-Jul-2019
 Local
(UTC-4)
 Zulu
(UTC)
Morning civil twilight05:1809:18
Sunrise05:5009:50
Sunset20:2600:26
Evening civil twilight20:5800:58

Current date and time
Zulu (UTC)  20-Jul-2019 14:59:43
Local (UTC-4)  20-Jul-2019 10:59:43
 
METAR
KPTW 
6nm W 
201454Z AUTO VRB05KT 9SM CLR 31/22 A2994 RMK AO2 SLP134 T03060222 53003
KLOM 
9nm SE 
201435Z AUTO 30006KT 10SM CLR 31/23 A2993 RMK AO2 T03150229
KCKZ 
13nm NE 
201435Z AUTO 28006KT 10SM CLR 30/22 A2994 RMK AO2
KUKT 
14nm N 
201440Z AUTO 30006KT 10SM CLR 32/23 A2994 RMK A01
KOQN 
15nm SW 
201455Z AUTO 31005KT 10SM CLR 32/21 A2994 RMK AO2
KDYL 
16nm NE 
201454Z AUTO VRB04KT 10SM CLR 33/22 A2992 RMK AO2 SLP122 T03280217 53002
TAF
NOTAMs
Click for the latest NOTAMs
NOTAMs are issued by the DoD/FAA and will open in a separate window not controlled by AirNav.

 

 
 

Would you like to see your business listed on this page?

 If your business provides an interesting product or service to pilots, flight crews, aircraft, or users of the Perkiomen Valley Airport, you should consider listing it here.  To start the listing process, click on the button below
 
Add a business
 

Other Pages about Perkiomen Valley Airport

Update a link
 
Copyright © AirNav, LLC. All rights reserved. Privacy Policy  Contact